EGNX Airport Information

Runway Information
Runway 09 Length 9491 ft width 151 ft
Elevation 306 ft Threshold 590 ft Heading 88
Runway 27 Length 9491 ft Width 151 ft
Elevation 282 ft Threshold 426 ft Heading 268
Airport Frequencies
Type APP Name APP Frequency 134.175 MHZ
Type ATIS Name ATIS Frequency 128.225 MHZ
Type Fire servi Name Frequency 121.6 MHZ
Type GND Name GND Frequency 121.9 MHZ
Type TWR Name TWR Frequency 124 MHZ
Airport Navaids
Airport Weather Information & NOTAM
ADDS - METARS form results

(0044 UTC 23 April 2019)
Data provider http://aviationweather.gov/metar/data/
 
METAR text: EGNX 230020Z 06005KT CAVOK 12/07 Q1001
Conditions at: EGNX (EAST MIDLANDS , GB) observed 0020 UTC 23 April 2019
Temperature: 12.0°C (54°F)
Dewpoint: 7.0°C (45°F) [RH = 71%]
Pressure (altimeter): 29.56 inches Hg (1001.0 mb)
Winds: from the ENE (60 degrees) at 6 MPH (5 knots; 2.6 m/s)
Visibility: 6 or more miles (10+ km)
Ceiling: ceiling and visibility are OK
Clouds: unknown
Weather: no significant weather observed at this time

METAR text: EGNX 222350Z 08006KT CAVOK 13/07 Q1002
Conditions at: EGNX (EAST MIDLANDS , GB) observed 2350 UTC 22 April 2019
Temperature: 13.0°C (55°F)
Dewpoint: 7.0°C (45°F) [RH = 67%]
Pressure (altimeter): 29.59 inches Hg (1002.0 mb)
Winds: from the E (80 degrees) at 7 MPH (6 knots; 3.1 m/s)
Visibility: 6 or more miles (10+ km)
Ceiling: ceiling and visibility are OK
Clouds: unknown
Weather: no significant weather observed at this time

Forecast for: EGNX (EAST MIDLANDS , GB)
Text: TAF EGNX 222258Z 2300/2324 VRB04KT CAVOK
Forecast period: 0000 to 0900 UTC 23 April 2019
Forecast type: FROM: standard forecast or significant change
Winds: variable direction winds at 5 MPH (4 knots; 2.1 m/s)
Visibility: 6 or more miles 10+ km)
Ceiling: unknown
Clouds: missing
Weather: NSW  (no significant weather)
Text: PROB30
Forecast period: 0000 to 0700 UTC 23 April 2019
Forecast type: TEMPORARY: The following changes expected for less than half the time period
Visibility: 6 miles (9 km)
Ceiling: unknown
Clouds: missing
Weather: no significant weather forecast for this period
Text: TEMPO 2300/2307 9000
Forecast period: 0900 UTC 23 April 2019 to 0000 UTC 24 April 2019
Forecast type: BECOMING: Conditions expected to become as follows by 1200 UTC 23 April 2019
Winds: from the E (80 degrees) at 14 MPH (12 knots; 6.2 m/s)
Visibility: 6 or more miles 10+ km)
Ceiling: unknown
Clouds: missing
Weather: NSW  (no significant weather)
Text: BECMG 2309/2312 08012KT
Forecast period: 1200 to 1800 UTC 23 April 2019
Forecast type: TEMPORARY: The following changes expected for less than half the time period
Winds: from the E (80 degrees) at 17 MPH (15 knots; 7.7 m/s)
gusting to 29 MPH (25 knots; 12.9 m/s)
Visibility: missing
Ceiling: unknown
Clouds: missing
Weather: no significant weather forecast for this period